Time;durP1;ratioP1;P1;durP2;ratioP2;P2;SDS_P1;SDS_P2;PMS_P1;PMS_P2;Temp;Humidity;BMP_temperature;BMP_pressure;BME280_temperature;BME280_humidity;BME280_pressure;Samples;Min_cycle;Max_cycle;Signal;HPM_P1;HPM_P2
2023/03/08 00:00:44;;;;;;;0.38;0.38;;;5.20;99.90;;;;;;4971541;28;20038;-76
2023/03/08 00:03:13;;;;;;;0.38;0.38;;;5.20;99.90;;;;;;4992364;28;20493;-76
2023/03/08 00:05:39;;;;;;;0.10;0.10;;;5.30;99.90;;;;;;4986831;28;20029;-76
2023/03/08 00:08:04;;;;;;;1.85;1.05;;;5.30;99.90;;;;;;4990628;28;20032;-76
2023/03/08 00:10:30;;;;;;;0.85;0.75;;;5.30;99.90;;;;;;4995813;28;20041;-76
2023/03/08 00:12:56;;;;;;;2.47;2.28;;;5.30;99.90;;;;;;4999450;28;20029;-77
2023/03/08 00:15:21;;;;;;;0.38;0.38;;;5.30;99.90;;;;;;4996947;28;20037;-76
2023/03/08 00:17:47;;;;;;;0.40;0.40;;;5.30;99.90;;;;;;4992748;28;20030;-75
2023/03/08 00:20:13;;;;;;;0.65;0.65;;;5.30;99.90;;;;;;5000349;28;20365;-75
2023/03/08 00:22:40;;;;;;;2.17;2.07;;;5.30;99.90;;;;;;4997475;28;20048;-75
2023/03/08 00:25:07;;;;;;;;;;;5.30;99.90;;;;;;5004014;28;20045;-74
2023/03/08 00:27:34;;;;;;;0.68;0.68;;;5.30;99.90;;;;;;4997351;28;20315;-76
2023/03/08 00:30:00;;;;;;;0.20;0.20;;;5.30;99.90;;;;;;4999763;28;20081;-75
2023/03/08 00:32:26;;;;;;;0.90;0.87;;;5.30;99.90;;;;;;4989852;28;20872;-76
2023/03/08 00:34:53;;;;;;;0.43;0.43;;;5.30;99.90;;;;;;5000178;28;20030;-76
2023/03/08 00:37:19;;;;;;;1.23;1.13;;;5.40;99.90;;;;;;5000418;28;20497;-75
2023/03/08 00:39:52;;;;;;;0.28;0.28;;;5.30;99.90;;;;;;4994963;28;20271;-76
2023/03/08 00:42:18;;;;;;;0.38;0.38;;;5.20;99.90;;;;;;4997209;28;20129;-76
2023/03/08 00:44:44;;;;;;;0.13;0.13;;;5.20;99.90;;;;;;4997168;28;20053;-75
2023/03/08 00:47:10;;;;;;;1.05;0.98;;;5.20;99.90;;;;;;4999119;28;20038;-75
2023/03/08 00:49:35;;;;;;;0.65;0.65;;;5.30;99.90;;;;;;5004602;28;20025;-75
2023/03/08 00:52:01;;;;;;;0.43;0.43;;;5.30;99.90;;;;;;5004427;28;20033;-75
2023/03/08 00:54:28;;;;;;;1.02;1.02;;;5.30;99.90;;;;;;5002841;28;20037;-76
2023/03/08 00:56:53;;;;;;;0.55;0.55;;;5.30;99.90;;;;;;4995138;28;20573;-77
2023/03/08 00:59:19;;;;;;;0.30;0.30;;;5.30;99.90;;;;;;4991329;28;20034;-74
2023/03/08 01:01:45;;;;;;;3.15;2.85;;;5.30;99.90;;;;;;4998128;28;20046;-74
2023/03/08 01:04:11;;;;;;;1.17;1.08;;;5.30;99.90;;;;;;5001580;28;20034;-75
2023/03/08 01:06:38;;;;;;;1.52;1.02;;;5.40;99.90;;;;;;5002236;28;20084;-75
2023/03/08 01:09:04;;;;;;;0.20;0.20;;;5.30;99.90;;;;;;5003429;28;20120;-75
2023/03/08 01:11:30;;;;;;;2.53;2.28;;;5.40;99.90;;;;;;5003035;28;20501;-75
2023/03/08 01:13:56;;;;;;;7.60;1.77;;;5.40;99.90;;;;;;5002949;28;20033;-75
2023/03/08 01:16:28;;;;;;;0.20;0.20;;;5.40;99.90;;;;;;5001633;28;20084;-75
2023/03/08 01:18:54;;;;;;;3.15;2.33;;;5.40;99.90;;;;;;5001716;28;20497;-76
2023/03/08 01:21:20;;;;;;;0.60;0.60;;;5.40;99.90;;;;;;5001879;28;20065;-76
2023/03/08 01:23:46;;;;;;;1.08;0.98;;;5.40;99.90;;;;;;5000183;28;20038;-76
2023/03/08 01:26:21;;;;;;;0.50;0.50;;;5.40;99.90;;;;;;5003602;28;20386;-76
2023/03/08 01:28:47;;;;;;;0.30;0.30;;;5.50;99.90;;;;;;5003630;28;20029;-76
2023/03/08 01:31:19;;;;;;;1.88;1.30;;;5.40;99.90;;;;;;5002148;28;20220;-76
2023/03/08 01:33:45;;;;;;;0.22;0.22;;;5.50;99.90;;;;;;5000811;28;20034;-75
2023/03/08 01:36:16;;;;;;;0.40;0.40;;;5.50;99.90;;;;;;4995111;28;20037;-76
2023/03/08 01:38:42;;;;;;;0.95;0.95;;;5.50;99.90;;;;;;5002647;28;20045;-76
2023/03/08 01:41:13;;;;;;;4.85;1.33;;;5.50;99.90;;;;;;5003103;28;20034;-76
2023/03/08 01:43:39;;;;;;;1.65;0.32;;;5.40;99.90;;;;;;5000109;28;20030;-76
2023/03/08 01:46:19;;;;;;;0.20;0.20;;;5.50;99.90;;;;;;4983581;28;20019;-77
2023/03/08 01:49:07;;;;;;;1.02;0.93;;;5.50;99.90;;;;;;4988996;28;20107;-76
2023/03/08 01:51:41;;;;;;;0.45;0.45;;;5.50;99.90;;;;;;4982788;28;20468;-76
2023/03/08 01:54:14;;;;;;;0.77;0.77;;;5.50;99.90;;;;;;4981641;28;20948;-77
2023/03/08 01:56:43;;;;;;;2.40;1.25;;;5.50;99.90;;;;;;4990898;28;20031;-76
2023/03/08 01:59:09;;;;;;;0.17;0.17;;;5.50;99.90;;;;;;4991222;28;20109;-77
2023/03/08 02:01:35;;;;;;;0.77;0.77;;;5.50;99.90;;;;;;4983639;28;20505;-76
2023/03/08 02:04:02;;;;;;;2.17;1.08;;;5.50;99.90;;;;;;4976550;28;20030;-76
2023/03/08 02:06:28;;;;;;;0.15;0.15;;;5.50;99.90;;;;;;4983053;28;20090;-76
2023/03/08 02:08:54;;;;;;;0.43;0.43;;;5.50;99.90;;;;;;4966004;28;20100;-76
2023/03/08 02:11:21;;;;;;;0.77;0.77;;;5.50;99.90;;;;;;4984193;28;20498;-75
2023/03/08 02:13:47;;;;;;;;;;;5.50;99.90;;;;;;4986341;28;20062;-75
2023/03/08 02:16:15;;;;;;;0.85;0.85;;;5.60;99.90;;;;;;4983573;28;19918;-76
2023/03/08 02:18:51;;;;;;;1.63;0.35;;;5.50;99.90;;;;;;4987714;28;20031;-75
2023/03/08 02:21:17;;;;;;;0.30;0.30;;;5.40;99.90;;;;;;4976748;28;20038;-76
2023/03/08 02:23:43;;;;;;;0.77;0.77;;;5.50;99.90;;;;;;4985443;28;20039;-75
2023/03/08 02:26:08;;;;;;;0.55;0.55;;;5.50;99.90;;;;;;4982812;28;20613;-75
2023/03/08 02:28:34;;;;;;;0.15;0.15;;;5.50;99.90;;;;;;4982083;28;20857;-76
2023/03/08 02:31:00;;;;;;;0.43;0.43;;;5.60;99.90;;;;;;4982271;28;20038;-75
2023/03/08 02:33:25;;;;;;;0.50;0.50;;;5.60;99.90;;;;;;4986332;28;20068;-76
2023/03/08 02:35:51;;;;;;;0.25;0.25;;;5.60;99.90;;;;;;4974799;28;20080;-76
2023/03/08 02:38:19;;;;;;;0.65;0.65;;;5.70;99.90;;;;;;4983190;28;20041;-76
2023/03/08 02:40:45;;;;;;;0.25;0.25;;;5.60;99.90;;;;;;4982712;28;20031;-76
2023/03/08 02:43:11;;;;;;;0.85;0.85;;;5.60;99.90;;;;;;4982391;28;20042;-76
2023/03/08 02:45:37;;;;;;;0.30;0.30;;;5.60;99.90;;;;;;4992297;28;20842;-75
2023/03/08 02:48:04;;;;;;;0.60;0.60;;;5.70;99.90;;;;;;4965689;28;20550;-76
2023/03/08 02:50:30;;;;;;;;;;;5.70;99.90;;;;;;4982879;28;20030;-76
2023/03/08 02:52:56;;;;;;;1.52;1.42;;;5.70;99.90;;;;;;4967721;28;19943;-75
2023/03/08 02:55:21;;;;;;;0.60;0.60;;;5.60;99.90;;;;;;4973379;28;20038;-75
2023/03/08 02:57:47;;;;;;;1.65;0.70;;;5.50;99.90;;;;;;4987864;28;20034;-75
2023/03/08 03:00:13;;;;;;;0.32;0.32;;;5.50;99.90;;;;;;4977743;28;20030;-75
2023/03/08 03:02:39;;;;;;;0.40;0.40;;;5.60;99.90;;;;;;4983938;28;20042;-76
2023/03/08 03:05:07;;;;;;;0.10;0.10;;;5.60;99.90;;;;;;4986784;28;20030;-76
2023/03/08 03:07:41;;;;;;;0.40;0.40;;;5.60;99.90;;;;;;4969648;28;20026;-76
2023/03/08 03:10:11;;;;;;;0.45;0.45;;;5.60;99.90;;;;;;4987522;28;20037;-76
2023/03/08 03:12:36;;;;;;;0.30;0.30;;;5.70;99.90;;;;;;4983840;28;20030;-75
2023/03/08 03:15:04;;;;;;;0.10;0.10;;;5.60;99.90;;;;;;4988113;28;20528;-75
2023/03/08 03:17:31;;;;;;;0.32;0.32;;;5.70;99.90;;;;;;4982327;28;20105;-74
2023/03/08 03:19:56;;;;;;;0.10;0.10;;;5.60;99.90;;;;;;4985786;28;20030;-74
2023/03/08 03:22:22;;;;;;;0.45;0.45;;;5.70;99.90;;;;;;4989456;28;20816;-74
2023/03/08 03:24:51;;;;;;;1.17;1.15;;;5.70;99.90;;;;;;4989215;28;20076;-76
2023/03/08 03:27:18;;;;;;;0.90;0.90;;;5.50;99.90;;;;;;4988248;28;20018;-76
2023/03/08 03:29:43;;;;;;;0.20;0.20;;;5.40;99.90;;;;;;4986205;28;20070;-76
2023/03/08 03:32:09;;;;;;;0.25;0.25;;;5.40;99.90;;;;;;4988128;28;20137;-76
2023/03/08 03:34:35;;;;;;;0.68;0.68;;;5.50;99.90;;;;;;4987119;28;20510;-76
2023/03/08 03:37:01;;;;;;;11.15;0.93;;;5.40;99.90;;;;;;4985198;28;20680;-75
2023/03/08 03:39:32;;;;;;;1.23;1.13;;;5.40;99.90;;;;;;4985960;28;20125;-75
2023/03/08 03:41:58;;;;;;;2.35;1.15;;;5.40;99.90;;;;;;4987634;28;20061;-75
2023/03/08 03:44:24;;;;;;;0.32;0.32;;;5.40;99.90;;;;;;4992436;28;20506;-75
2023/03/08 03:46:49;;;;;;;2.10;1.95;;;5.50;99.90;;;;;;5003982;28;20041;-75
2023/03/08 03:49:15;;;;;;;0.30;0.30;;;5.50;99.90;;;;;;4997435;28;20493;-76
2023/03/08 03:51:41;;;;;;;0.38;0.38;;;5.50;99.90;;;;;;4998836;28;20037;-76
2023/03/08 03:54:06;;;;;;;0.43;0.43;;;5.50;99.90;;;;;;4995290;28;20029;-76
2023/03/08 03:56:32;;;;;;;0.20;0.20;;;5.60;99.90;;;;;;4999491;28;20065;-76
2023/03/08 03:58:58;;;;;;;2.53;0.63;;;5.50;99.90;;;;;;5004945;28;20033;-76
2023/03/08 04:01:26;;;;;;;0.15;0.15;;;5.60;99.90;;;;;;4999893;28;20026;-75
2023/03/08 04:03:53;;;;;;;0.52;0.52;;;5.60;99.90;;;;;;4996480;28;20509;-76
2023/03/08 04:06:25;;;;;;;0.45;0.45;;;5.60;99.90;;;;;;4997893;28;20030;-76
2023/03/08 04:08:53;;;;;;;0.80;0.80;;;5.60;99.90;;;;;;4982568;28;20053;-76
2023/03/08 04:11:22;;;;;;;1.20;1.13;;;5.60;99.90;;;;;;4998308;28;20137;-76
2023/03/08 04:13:48;;;;;;;1.10;1.10;;;5.60;99.90;;;;;;4996126;28;20088;-75
2023/03/08 04:16:18;;;;;;;1.02;0.93;;;5.60;99.90;;;;;;4999616;28;20110;-76
2023/03/08 04:18:44;;;;;;;0.10;0.10;;;5.60;99.90;;;;;;5001616;28;20084;-75
2023/03/08 04:21:10;;;;;;;1.48;1.27;;;5.70;99.90;;;;;;5001110;28;20038;-75
2023/03/08 04:23:36;;;;;;;1.48;0.65;;;5.70;99.90;;;;;;4995063;28;20838;-75
2023/03/08 04:26:03;;;;;;;0.20;0.20;;;5.70;99.90;;;;;;4996826;28;20033;-74
2023/03/08 04:28:29;;;;;;;;;;;5.70;99.90;;;;;;5004640;28;20026;-74
2023/03/08 04:30:55;;;;;;;0.20;0.20;;;5.70;99.90;;;;;;4985804;28;19940;-75
2023/03/08 04:33:21;;;;;;;0.30;0.30;;;5.80;99.90;;;;;;4996671;28;20022;-75
2023/03/08 04:35:47;;;;;;;1.40;0.57;;;5.80;99.90;;;;;;5001986;28;20040;-75
2023/03/08 04:38:13;;;;;;;0.25;0.25;;;5.80;99.90;;;;;;5000680;28;20409;-75
2023/03/08 04:43:23;;;;;;;0.20;0.20;;;5.80;99.90;;;;;;5000173;28;20085;-75
2023/03/08 04:45:49;;;;;;;4.60;1.30;;;5.80;99.90;;;;;;4996321;28;20058;-74
2023/03/08 04:48:15;;;;;;;0.10;0.10;;;5.80;99.90;;;;;;5000830;28;20112;-74
2023/03/08 04:50:41;;;;;;;1.02;0.85;;;5.80;99.90;;;;;;5000935;28;20026;-74
2023/03/08 04:53:07;;;;;;;1.45;0.55;;;5.80;99.90;;;;;;4995261;28;20576;-75
2023/03/08 04:55:35;;;;;;;0.25;0.25;;;5.80;99.90;;;;;;4982859;28;20022;-74
2023/03/08 04:58:00;;;;;;;0.32;0.32;;;5.80;99.90;;;;;;4995641;28;20065;-74
2023/03/08 05:00:26;;;;;;;0.10;0.10;;;5.60;99.90;;;;;;5000936;28;20501;-75
2023/03/08 05:02:52;;;;;;;5.28;1.30;;;5.60;99.90;;;;;;4994382;28;20038;-74
2023/03/08 05:05:18;;;;;;;0.15;0.15;;;5.60;99.90;;;;;;5010356;28;20493;-74
2023/03/08 05:07:43;;;;;;;0.90;0.90;;;5.60;99.90;;;;;;4998358;28;20128;-75
2023/03/08 05:10:09;;;;;;;0.10;0.10;;;5.60;99.90;;;;;;5010642;28;20404;-75
2023/03/08 05:12:35;;;;;;;0.30;0.30;;;5.60;99.90;;;;;;5007180;28;20530;-74
2023/03/08 05:15:01;;;;;;;0.32;0.32;;;5.70;99.90;;;;;;4997731;28;20033;-74
2023/03/08 05:17:27;;;;;;;0.30;0.30;;;5.70;99.90;;;;;;5005130;28;20030;-75
2023/03/08 05:19:52;;;;;;;0.63;0.47;;;5.70;99.90;;;;;;5008076;28;20037;-74
2023/03/08 05:22:18;;;;;;;0.43;0.43;;;5.80;99.90;;;;;;5001991;28;20782;-74
2023/03/08 05:24:45;;;;;;;0.45;0.45;;;5.90;99.90;;;;;;4998269;28;20076;-73
2023/03/08 05:27:10;;;;;;;1.05;0.80;;;5.80;99.90;;;;;;4999066;28;20033;-74
2023/03/08 05:29:36;;;;;;;0.10;0.10;;;5.80;99.90;;;;;;4999239;28;20042;-75
2023/03/08 05:32:02;;;;;;;0.10;0.10;;;5.90;99.90;;;;;;4992470;28;20034;-75
2023/03/08 05:34:29;;;;;;;0.10;0.10;;;5.90;99.90;;;;;;4995714;28;20041;-74
2023/03/08 05:36:55;;;;;;;0.10;0.10;;;5.90;99.90;;;;;;4995184;28;20121;-75
2023/03/08 05:39:21;;;;;;;0.20;0.20;;;5.90;99.90;;;;;;5001651;28;20030;-75
2023/03/08 05:41:47;;;;;;;0.10;0.10;;;5.90;99.90;;;;;;5003749;28;20339;-77
2023/03/08 05:44:13;;;;;;;1.25;1.00;;;6.00;99.90;;;;;;4985325;28;20112;-76
2023/03/08 05:46:39;;;;;;;2.33;0.77;;;6.10;99.90;;;;;;5000526;28;20494;-76
2023/03/08 05:49:05;;;;;;;0.10;0.10;;;6.10;99.90;;;;;;5008998;28;20037;-77
2023/03/08 05:51:31;;;;;;;0.10;0.10;;;6.20;99.90;;;;;;4989917;28;20096;-77
2023/03/08 05:53:57;;;;;;;0.27;0.27;;;6.20;99.90;;;;;;5001847;28;20136;-76
2023/03/08 05:56:23;;;;;;;0.10;0.10;;;6.30;99.90;;;;;;5001608;28;20361;-75
2023/03/08 05:58:50;;;;;;;0.10;0.10;;;6.30;99.90;;;;;;4996088;28;20183;-76
2023/03/08 06:01:19;;;;;;;0.85;0.68;;;6.30;99.90;;;;;;4980923;28;20349;-77
2023/03/08 06:03:47;;;;;;;0.47;0.47;;;6.40;99.90;;;;;;5005677;28;20041;-76
2023/03/08 06:06:14;;;;;;;0.10;0.10;;;6.40;99.90;;;;;;5010834;28;20030;-75
2023/03/08 06:08:40;;;;;;;0.52;0.52;;;6.40;99.90;;;;;;4999532;28;20498;-76
2023/03/08 06:11:06;;;;;;;0.98;0.98;;;6.50;99.90;;;;;;4978171;28;20040;-76
2023/03/08 06:13:32;;;;;;;2.53;1.45;;;6.50;99.90;;;;;;4990643;28;20088;-78
2023/03/08 06:15:59;;;;;;;1.80;1.23;;;6.50;99.90;;;;;;5002763;28;20406;-76
2023/03/08 06:18:25;;;;;;;0.47;0.38;;;6.50;99.90;;;;;;5002103;28;20038;-77
2023/03/08 06:21:01;;;;;;;0.20;0.20;;;6.60;99.90;;;;;;4986525;28;20093;-79
2023/03/08 06:23:28;;;;;;;0.30;0.30;;;6.60;99.90;;;;;;4999028;28;20041;-78
2023/03/08 06:25:55;;;;;;;0.90;0.90;;;6.60;99.90;;;;;;4999635;28;21004;-79
2023/03/08 06:28:21;;;;;;;2.72;0.77;;;6.60;99.90;;;;;;4989914;28;20468;-78
2023/03/08 06:30:48;;;;;;;0.45;0.45;;;6.60;99.90;;;;;;4996607;28;20402;-80
2023/03/08 06:33:18;;;;;;;0.20;0.20;;;6.70;99.90;;;;;;4988532;28;20493;-79
2023/03/08 06:35:53;;;;;;;0.68;0.68;;;6.70;99.90;;;;;;4995733;28;20038;-78
2023/03/08 06:38:19;;;;;;;0.10;0.10;;;6.70;99.90;;;;;;5004686;28;20367;-79
2023/03/08 06:40:45;;;;;;;0.25;0.25;;;6.70;99.90;;;;;;4998805;28;20029;-78
2023/03/08 06:43:10;;;;;;;0.20;0.20;;;6.70;99.90;;;;;;5003015;28;20079;-78
2023/03/08 06:45:39;;;;;;;0.65;0.47;;;6.60;99.90;;;;;;5008181;28;20154;-79
2023/03/08 06:48:05;;;;;;;0.10;0.10;;;6.60;99.90;;;;;;5005943;28;20030;-80
2023/03/08 06:50:32;;;;;;;0.28;0.28;;;6.70;99.90;;;;;;4997584;28;20115;-78
2023/03/08 06:52:57;;;;;;;9.25;0.85;;;6.70;99.90;;;;;;4985057;28;20501;-79
2023/03/08 06:55:23;;;;;;;0.20;0.20;;;6.70;99.90;;;;;;5013557;28;20037;-77
2023/03/08 06:57:49;;;;;;;0.35;0.32;;;6.70;99.90;;;;;;5000915;28;20025;-80
2023/03/08 07:00:15;;;;;;;0.10;0.10;;;6.80;99.90;;;;;;5003423;28;20084;-79
2023/03/08 07:02:41;;;;;;;0.50;0.50;;;6.80;99.90;;;;;;4992055;28;20065;-74
2023/03/08 07:05:07;;;;;;;0.47;0.47;;;6.80;99.90;;;;;;4996580;28;20804;-77
2023/03/08 07:07:34;;;;;;;1.13;1.13;;;6.90;99.90;;;;;;5008116;28;20030;-77
2023/03/08 07:10:00;;;;;;;;;;;7.00;99.90;;;;;;5011241;28;20488;-78
2023/03/08 07:12:25;;;;;;;0.10;0.10;;;6.90;99.90;;;;;;4980598;28;19913;-78
2023/03/08 07:14:52;;;;;;;1.10;1.10;;;7.00;99.90;;;;;;5003994;28;20129;-77
2023/03/08 07:17:18;;;;;;;0.20;0.20;;;7.10;99.90;;;;;;5000328;28;20548;-78
2023/03/08 07:19:44;;;;;;;0.45;0.45;;;7.10;99.90;;;;;;5001557;28;20046;-77
2023/03/08 07:22:11;;;;;;;0.40;0.40;;;7.10;99.90;;;;;;5010499;28;20117;-78
2023/03/08 07:24:37;;;;;;;0.75;0.75;;;7.20;99.90;;;;;;4999369;28;20045;-79
2023/03/08 07:27:04;;;;;;;0.10;0.10;;;7.30;99.90;;;;;;4997958;28;20116;-78
2023/03/08 07:29:29;;;;;;;3.42;2.72;;;7.20;99.90;;;;;;5000064;28;20030;-78
2023/03/08 07:31:55;;;;;;;1.00;1.00;;;7.30;99.90;;;;;;5000813;28;20579;-78
2023/03/08 07:34:21;;;;;;;0.20;0.20;;;7.30;99.90;;;;;;5001148;28;20758;-78
2023/03/08 07:36:46;;;;;;;0.65;0.65;;;7.40;99.90;;;;;;4997566;28;20038;-78
2023/03/08 07:39:12;;;;;;;0.60;0.38;;;7.50;99.90;;;;;;5007919;28;20069;-78
2023/03/08 07:41:38;;;;;;;0.28;0.28;;;7.50;99.90;;;;;;5001096;28;20846;-78
2023/03/08 07:44:04;;;;;;;0.82;0.82;;;7.50;99.90;;;;;;4998170;28;20124;-78
2023/03/08 07:46:29;;;;;;;1.70;0.98;;;7.50;99.90;;;;;;4980543;28;20058;-78
2023/03/08 07:48:55;;;;;;;0.47;0.47;;;7.40;99.90;;;;;;4985291;28;20030;-78
2023/03/08 07:51:21;;;;;;;1.35;1.25;;;7.50;99.90;;;;;;4985288;28;20049;-78
2023/03/08 07:53:46;;;;;;;0.28;0.28;;;7.50;99.90;;;;;;4992139;28;20026;-78
2023/03/08 07:56:12;;;;;;;0.35;0.35;;;7.50;99.90;;;;;;4984143;28;20177;-79
2023/03/08 07:58:38;;;;;;;0.20;0.20;;;7.50;99.90;;;;;;4985211;28;20027;-78
2023/03/08 08:01:11;;;;;;;0.10;0.10;;;7.50;99.90;;;;;;4992882;28;20038;-78
2023/03/08 08:03:37;;;;;;;0.10;0.10;;;7.60;99.90;;;;;;4977633;28;20049;-79
2023/03/08 08:06:04;;;;;;;0.43;0.43;;;7.70;99.90;;;;;;4966332;28;20092;-79
2023/03/08 08:08:30;;;;;;;;;;;7.70;99.90;;;;;;4966146;28;20026;-79
2023/03/08 08:10:56;;;;;;;0.23;0.23;;;7.70;99.90;;;;;;4985339;28;20376;-78
2023/03/08 08:13:21;;;;;;;0.10;0.10;;;7.70;99.90;;;;;;4979524;28;20027;-78
2023/03/08 08:15:57;;;;;;;0.10;0.10;;;7.80;99.90;;;;;;4985491;28;20037;-79
2023/03/08 08:18:22;;;;;;;0.25;0.25;;;7.80;99.90;;;;;;4983530;28;20034;-78
2023/03/08 08:20:48;;;;;;;0.10;0.10;;;7.80;99.90;;;;;;4985565;28;20061;-78
2023/03/08 08:23:14;;;;;;;0.10;0.10;;;7.90;99.90;;;;;;4962753;28;20047;-78
2023/03/08 08:25:39;;;;;;;0.10;0.10;;;7.90;99.90;;;;;;4959208;28;20033;-78
2023/03/08 08:28:05;;;;;;;0.17;0.17;;;7.90;99.90;;;;;;4974385;28;20773;-79
2023/03/08 08:30:31;;;;;;;0.30;0.20;;;7.90;99.90;;;;;;4984555;28;20097;-79
2023/03/08 08:32:59;;;;;;;0.10;0.10;;;7.90;99.90;;;;;;4984563;28;20030;-79
2023/03/08 08:35:25;;;;;;;0.13;0.13;;;8.00;99.90;;;;;;4981797;28;20030;-78
2023/03/08 08:37:51;;;;;;;0.22;0.22;;;8.00;99.90;;;;;;4984591;28;20030;-78
2023/03/08 08:40:17;;;;;;;0.10;0.10;;;7.90;99.90;;;;;;4982293;28;20867;-78
2023/03/08 08:42:42;;;;;;;0.20;0.20;;;7.90;99.90;;;;;;4982770;28;20038;-78
2023/03/08 08:45:09;;;;;;;0.70;0.70;;;7.90;99.90;;;;;;4977819;28;20173;-78
2023/03/08 08:47:34;;;;;;;0.10;0.10;;;7.80;99.90;;;;;;4966720;28;20026;-79
2023/03/08 08:50:00;;;;;;;0.57;0.40;;;7.80;99.90;;;;;;4983734;28;20034;-78
2023/03/08 08:52:25;;;;;;;0.90;0.50;;;7.80;99.90;;;;;;4977422;28;20326;-78
2023/03/08 08:54:52;;;;;;;0.20;0.20;;;7.80;99.90;;;;;;4972767;28;20030;-78
2023/03/08 08:57:17;;;;;;;0.10;0.10;;;7.90;99.90;;;;;;4978708;28;20033;-78
2023/03/08 08:59:43;;;;;;;0.20;0.20;;;7.90;99.90;;;;;;4978001;28;20261;-78
2023/03/08 09:02:10;;;;;;;0.65;0.65;;;7.90;99.90;;;;;;4963039;28;20039;-78
2023/03/08 09:04:36;;;;;;;0.40;0.40;;;7.90;99.90;;;;;;4982980;28;20022;-79
2023/03/08 09:07:02;;;;;;;0.10;0.10;;;8.00;99.90;;;;;;4973019;28;20027;-78
2023/03/08 09:09:27;;;;;;;0.25;0.25;;;8.00;99.90;;;;;;4973824;28;20037;-78
2023/03/08 09:11:53;;;;;;;0.28;0.28;;;8.10;99.90;;;;;;4971153;28;20034;-78
2023/03/08 09:14:19;;;;;;;0.55;0.43;;;8.00;99.90;;;;;;4970031;28;20487;-78
2023/03/08 09:16:45;;;;;;;0.40;0.40;;;7.90;99.90;;;;;;4978169;28;20674;-78
2023/03/08 09:19:11;;;;;;;0.10;0.10;;;7.90;99.90;;;;;;4978107;28;20034;-78
2023/03/08 09:21:36;;;;;;;0.65;0.65;;;8.00;99.90;;;;;;4977880;28;20037;-79
2023/03/08 09:24:05;;;;;;;1.00;0.95;;;8.00;99.90;;;;;;4967921;28;20039;-79
2023/03/08 09:26:32;;;;;;;0.50;0.50;;;8.00;99.90;;;;;;4971239;28;20049;-79
2023/03/08 09:29:03;;;;;;;0.22;0.22;;;8.00;99.90;;;;;;4982760;28;20096;-78
2023/03/08 09:31:30;;;;;;;0.10;0.10;;;8.00;99.90;;;;;;4966395;28;20035;-78
2023/03/08 09:33:56;;;;;;;0.20;0.20;;;8.10;99.90;;;;;;4979413;28;20069;-78
2023/03/08 09:36:21;;;;;;;0.30;0.30;;;8.20;99.90;;;;;;4975263;28;20105;-78
2023/03/08 09:38:49;;;;;;;6.03;0.57;;;8.40;99.90;;;;;;4980119;28;20030;-79
2023/03/08 09:41:34;;;;;;;0.45;0.45;;;8.40;99.90;;;;;;4981284;28;20069;-78
2023/03/08 09:44:20;;;;;;;0.10;0.10;;;8.60;99.90;;;;;;4984645;28;20058;-79
2023/03/08 09:46:55;;;;;;;0.30;0.30;;;8.70;99.90;;;;;;5003144;28;20034;-79
2023/03/08 09:49:27;;;;;;;1.23;0.90;;;8.70;99.90;;;;;;4992041;28;20468;-79
2023/03/08 09:52:03;;;;;;;0.10;0.10;;;8.70;99.90;;;;;;4997885;28;20037;-79
2023/03/08 09:54:31;;;;;;;0.30;0.30;;;8.60;99.90;;;;;;4996662;28;20037;-79
2023/03/08 09:57:00;;;;;;;0.45;0.45;;;8.50;99.90;;;;;;5000731;28;20343;-79
2023/03/08 10:00:08;;;;;;;1.55;1.35;;;8.50;99.90;;;;;;5003043;28;20021;-79
2023/03/08 10:03:11;;;;;;;0.10;0.10;;;8.50;99.90;;;;;;4937533;28;20050;-79
2023/03/08 10:06:03;;;;;;;0.10;0.10;;;8.40;99.90;;;;;;4941551;29;20407;-79
2023/03/08 10:08:44;;;;;;;0.20;0.20;;;8.40;99.90;;;;;;4987050;28;20882;-79
2023/03/08 10:11:20;;;;;;;0.20;0.20;;;8.40;99.90;;;;;;4999831;28;20057;-79
2023/03/08 10:13:52;;;;;;;0.28;0.28;;;8.40;99.90;;;;;;4994735;28;20040;-78
2023/03/08 10:16:32;;;;;;;0.20;0.20;;;8.70;99.90;;;;;;4994720;28;20504;-79
2023/03/08 10:19:09;;;;;;;0.20;0.20;;;8.60;99.90;;;;;;4980540;28;20033;-79
2023/03/08 10:21:39;;;;;;;0.10;0.10;;;8.60;99.90;;;;;;4999495;28;20026;-79
2023/03/08 10:24:16;;;;;;;2.65;1.20;;;8.60;99.90;;;;;;5002242;28;20034;-79
2023/03/08 10:26:43;;;;;;;0.15;0.15;;;8.60;99.90;;;;;;5001021;28;20022;-79
2023/03/08 10:29:12;;;;;;;;;;;8.60;99.90;;;;;;5002484;28;20030;-79
2023/03/08 10:31:41;;;;;;;0.40;0.40;;;8.60;99.90;;;;;;5000838;28;19910;-79
2023/03/08 10:34:19;;;;;;;0.17;0.17;;;8.70;99.90;;;;;;4996744;28;20456;-79
2023/03/08 10:36:49;;;;;;;0.20;0.20;;;9.00;99.90;;;;;;4998061;28;20057;-79
2023/03/08 10:39:16;;;;;;;0.20;0.20;;;9.10;99.90;;;;;;4981588;28;20030;-79
2023/03/08 10:41:46;;;;;;;0.20;0.20;;;9.30;99.90;;;;;;5000973;28;20022;-79
2023/03/08 10:44:32;;;;;;;0.10;0.10;;;9.40;99.90;;;;;;4998982;28;20133;-79
2023/03/08 10:46:58;;;;;;;0.73;0.73;;;9.40;99.90;;;;;;4994250;28;20022;-79
2023/03/08 10:49:24;;;;;;;0.10;0.10;;;9.30;99.90;;;;;;4991761;28;20490;-79
2023/03/08 10:51:57;;;;;;;0.10;0.10;;;9.40;99.90;;;;;;4986702;28;20549;-79
2023/03/08 10:54:23;;;;;;;0.13;0.13;;;9.40;99.90;;;;;;4988590;28;20045;-79
2023/03/08 10:56:59;;;;;;;0.20;0.20;;;9.40;99.90;;;;;;4984654;28;20582;-79
2023/03/08 10:59:35;;;;;;;1.33;1.23;;;9.40;99.90;;;;;;4973531;28;20579;-79
2023/03/08 11:02:11;;;;;;;0.20;0.20;;;9.50;99.90;;;;;;4969990;28;20042;-79
2023/03/08 11:04:37;;;;;;;;;;;9.70;99.90;;;;;;4983589;28;20034;-79
2023/03/08 11:07:19;;;;;;;0.10;0.10;;;9.90;99.90;;;;;;4965147;28;20309;-79
2023/03/08 11:09:44;;;;;;;0.20;0.20;;;10.00;99.90;;;;;;4982731;28;20873;-79
2023/03/08 11:12:22;;;;;;;0.10;0.10;;;9.90;99.90;;;;;;4982769;28;20026;-79
2023/03/08 11:14:48;;;;;;;0.30;0.30;;;10.00;99.90;;;;;;4977468;28;20439;-79
2023/03/08 11:17:29;;;;;;;0.30;0.30;;;10.10;99.90;;;;;;4983388;28;20030;-79
2023/03/08 11:20:18;;;;;;;0.10;0.10;;;10.20;99.90;;;;;;4984377;28;20018;-79
2023/03/08 11:23:02;;;;;;;0.10;0.10;;;10.10;99.90;;;;;;4964947;28;20737;-79
2023/03/08 11:25:45;;;;;;;0.10;0.10;;;10.40;99.90;;;;;;4986547;28;20033;-79
2023/03/08 11:28:35;;;;;;;0.10;0.10;;;10.30;99.90;;;;;;4988560;28;20061;-79
2023/03/08 11:31:03;;;;;;;0.13;0.13;;;10.30;99.90;;;;;;4980819;28;20026;-79
2023/03/08 11:33:40;;;;;;;0.10;0.10;;;10.30;99.90;;;;;;4998387;28;20041;-79
2023/03/08 11:36:15;;;;;;;0.10;0.10;;;10.60;99.90;;;;;;4986276;28;20054;-80
2023/03/08 11:38:41;;;;;;;0.10;0.10;;;10.70;99.90;;;;;;4986178;28;20103;-79
2023/03/08 11:41:39;;;;;;;0.45;0.45;;;10.50;99.90;;;;;;4961219;28;20022;-80
2023/03/08 11:44:23;;;;;;;0.20;0.20;;;10.40;99.90;;;;;;4992548;28;20064;-80
2023/03/08 11:46:56;;;;;;;0.20;0.20;;;10.30;99.90;;;;;;4987749;28;20494;-79
2023/03/08 11:49:29;;;;;;;0.10;0.10;;;10.30;99.90;;;;;;4985701;28;20022;-80
2023/03/08 11:52:07;;;;;;;0.10;0.10;;;10.30;99.90;;;;;;4987253;28;20034;-80
2023/03/08 11:54:51;;;;;;;0.43;0.43;;;10.90;99.90;;;;;;4986891;28;20058;-80
2023/03/08 11:57:17;;;;;;;0.08;0.08;;;11.40;99.90;;;;;;4988455;28;20034;-80
2023/03/08 11:59:59;;;;;;;2.37;0.63;;;11.40;99.90;;;;;;4987156;28;20100;-80
2023/03/08 12:02:29;;;;;;;0.30;0.22;;;11.30;99.90;;;;;;4990372;28;20687;-80
2023/03/08 12:05:18;;;;;;;0.30;0.28;;;11.50;99.90;;;;;;4984103;28;20022;-79
2023/03/08 12:07:51;;;;;;;0.20;0.20;;;12.00;99.90;;;;;;4972309;28;20048;-80
2023/03/08 12:10:39;;;;;;;0.10;0.10;;;12.20;99.90;;;;;;4983900;28;20026;-79
2023/03/08 12:13:33;;;;;;;0.10;0.10;;;12.10;99.90;;;;;;4982320;28;20931;-80
2023/03/08 12:16:16;;;;;;;0.10;0.10;;;11.90;99.90;;;;;;4983970;28;20018;-80
2023/03/08 12:19:10;;;;;;;0.60;0.60;;;12.00;99.90;;;;;;4983905;28;20034;-79
2023/03/08 12:21:52;;;;;;;0.05;0.05;;;12.20;99.90;;;;;;4979236;28;20063;-80
2023/03/08 12:24:32;;;;;;;0.50;0.50;;;12.50;99.90;;;;;;4980116;28;20034;-80
2023/03/08 12:27:03;;;;;;;0.10;0.10;;;12.80;99.90;;;;;;4967459;28;20501;-80
2023/03/08 12:29:40;;;;;;;0.45;0.45;;;12.80;99.90;;;;;;4978904;28;20532;-80
2023/03/08 12:32:09;;;;;;;0.20;0.20;;;12.50;99.90;;;;;;4963541;28;20754;-80
2023/03/08 12:34:36;;;;;;;0.57;0.30;;;12.40;99.90;;;;;;4988009;28;20030;-80
2023/03/08 12:37:02;;;;;;;0.15;0.15;;;12.50;99.90;;;;;;4985976;28;20030;-80
2023/03/08 12:39:35;;;;;;;0.07;0.07;;;12.50;99.90;;;;;;4985038;28;20601;-80
2023/03/08 12:42:08;;;;;;;0.10;0.10;;;12.40;99.90;;;;;;4983780;28;20389;-79
2023/03/08 12:44:33;;;;;;;0.10;0.10;;;12.80;99.90;;;;;;4986290;28;20120;-80
2023/03/08 12:47:16;;;;;;;0.20;0.20;;;13.00;99.90;;;;;;4978522;28;20031;-80
2023/03/08 12:49:50;;;;;;;1.02;1.02;;;13.10;99.90;;;;;;4976257;28;20711;-80
2023/03/08 12:52:18;;;;;;;0.10;0.10;;;12.90;99.90;;;;;;4983452;28;20049;-80
2023/03/08 12:55:00;;;;;;;0.30;0.30;;;13.00;99.90;;;;;;4988152;28;20038;-79
2023/03/08 12:57:41;;;;;;;0.10;0.10;;;13.10;99.90;;;;;;4986577;28;20026;-80
2023/03/08 13:00:34;;;;;;;0.00;0.00;;;13.10;99.90;;;;;;4980610;28;20050;-80
2023/03/08 13:03:25;;;;;;;0.15;0.15;;;12.80;99.90;;;;;;4982672;28;20034;-80
2023/03/08 13:05:51;;;;;;;0.10;0.10;;;12.80;99.90;;;;;;4981996;28;20541;-79
2023/03/08 13:08:27;;;;;;;0.00;0.00;;;13.00;99.90;;;;;;4983133;28;20704;-80
2023/03/08 13:11:00;;;;;;;0.13;0.13;;;13.10;99.90;;;;;;4983820;28;20109;-80